Time;durP1;ratioP1;P1;durP2;ratioP2;P2;SDS_P1;SDS_P2;PMS_P1;PMS_P2;Temp;Humidity;BMP_temperature;BMP_pressure;BME280_temperature;BME280_humidity;BME280_pressure;Samples;Min_cycle;Max_cycle;Signal;HPM_P1;HPM_P2
2023/06/23 17:52:23;;;;;;;9.43;4.55;;;33.20;51.60;;;;;;5068183;28;20128;-67
2023/06/23 17:54:49;;;;;;;4.43;2.88;;;32.70;51.30;;;;;;5068453;28;20115;-70
2023/06/23 17:57:15;;;;;;;9.57;4.30;;;32.40;51.80;;;;;;5069152;28;20020;-71
2023/06/23 17:59:40;;;;;;;4.88;2.72;;;32.00;52.40;;;;;;5068065;28;20445;-75
2023/06/23 18:02:07;;;;;;;4.00;2.47;;;31.60;52.10;;;;;;5068879;28;20106;-78
2023/06/23 18:04:33;;;;;;;5.20;2.50;;;31.20;54.20;;;;;;5068431;28;20021;-65
2023/06/23 18:06:59;;;;;;;4.10;2.75;;;30.80;56.00;;;;;;5067719;28;20023;-67
2023/06/23 18:09:24;;;;;;;4.10;2.53;;;30.50;55.70;;;;;;5067648;28;20531;-66
2023/06/23 18:11:51;;;;;;;4.47;2.60;;;30.00;57.00;;;;;;5066972;28;20373;-67
2023/06/23 18:14:17;;;;;;;5.18;2.67;;;29.70;58.10;;;;;;5067470;28;20024;-69
2023/06/23 18:16:43;;;;;;;4.93;3.05;;;29.50;58.20;;;;;;5068207;28;20526;-66
2023/06/23 18:19:09;;;;;;;3.70;2.72;;;29.10;59.00;;;;;;5066428;28;20020;-68
2023/06/23 18:21:34;;;;;;;5.10;2.92;;;28.90;59.50;;;;;;5067044;28;20025;-65
2023/06/23 18:24:00;;;;;;;4.15;2.97;;;28.70;60.40;;;;;;5066489;28;20017;-66
2023/06/23 18:26:25;;;;;;;4.88;2.63;;;28.40;61.30;;;;;;5067601;28;20021;-65
2023/06/23 18:28:51;;;;;;;4.70;3.05;;;28.20;61.90;;;;;;5065843;28;20028;-67
2023/06/23 18:31:17;;;;;;;4.38;3.00;;;28.00;61.60;;;;;;5067371;28;20036;-66
2023/06/23 18:33:43;;;;;;;4.93;2.65;;;27.80;62.60;;;;;;5067807;28;20024;-65
2023/06/23 18:36:08;;;;;;;4.53;2.83;;;27.50;62.70;;;;;;5066827;28;20029;-65
2023/06/23 18:38:34;;;;;;;4.65;2.80;;;27.10;64.10;;;;;;5067834;28;20103;-67
2023/06/23 18:40:59;;;;;;;5.53;3.30;;;26.80;65.00;;;;;;5066956;28;20449;-64
2023/06/23 18:43:26;;;;;;;5.35;3.10;;;26.50;65.40;;;;;;5067090;28;20087;-64
2023/06/23 18:45:51;;;;;;;4.50;3.20;;;26.30;66.80;;;;;;5067186;28;20449;-65
2023/06/23 18:48:17;;;;;;;6.60;3.40;;;26.20;67.70;;;;;;5066007;28;20032;-64
2023/06/23 18:50:42;;;;;;;4.43;2.75;;;26.10;68.30;;;;;;5072896;28;20399;-66
2023/06/23 18:53:08;;;;;;;5.72;3.15;;;26.00;68.80;;;;;;5087086;28;20071;-65
2023/06/23 18:55:34;;;;;;;5.75;3.15;;;25.90;69.20;;;;;;5087778;28;20056;-65
2023/06/23 18:58:00;;;;;;;5.05;3.45;;;25.80;70.30;;;;;;5086807;28;20099;-65
2023/06/23 19:00:27;;;;;;;5.57;3.47;;;25.60;70.00;;;;;;5087325;28;20023;-64
2023/06/23 19:02:56;;;;;;;7.65;3.97;;;25.50;70.90;;;;;;5059212;28;20029;-63
2023/06/23 19:05:21;;;;;;;5.55;3.65;;;25.30;71.10;;;;;;5073680;28;20032;-64
2023/06/23 19:07:47;;;;;;;6.97;4.32;;;25.20;72.10;;;;;;5073933;28;20028;-65
2023/06/23 19:10:13;;;;;;;4.75;3.10;;;25.10;72.30;;;;;;5072774;28;20714;-66
2023/06/23 19:12:39;;;;;;;6.22;3.45;;;25.10;72.80;;;;;;5073445;28;20024;-67
2023/06/23 19:15:05;;;;;;;6.00;3.30;;;24.90;73.00;;;;;;5053356;28;20016;-66
2023/06/23 19:17:31;;;;;;;9.48;5.55;;;24.80;73.90;;;;;;5053328;28;20021;-67
2023/06/23 19:19:57;;;;;;;5.45;3.67;;;24.80;74.60;;;;;;5036170;28;20024;-73
2023/06/23 19:22:22;;;;;;;9.52;5.43;;;24.70;75.00;;;;;;5035509;28;20163;-73
2023/06/23 19:24:48;;;;;;;6.88;4.40;;;24.70;76.20;;;;;;5035088;28;20112;-72
2023/06/23 19:27:14;;;;;;;5.40;3.97;;;24.70;76.90;;;;;;5053448;28;20021;-72
2023/06/23 19:29:39;;;;;;;5.72;3.83;;;24.60;77.10;;;;;;5053429;28;20081;-71
2023/06/23 19:32:05;;;;;;;5.30;3.22;;;24.50;77.80;;;;;;5052007;28;20036;-72
2023/06/23 19:34:31;;;;;;;6.93;3.75;;;24.50;78.10;;;;;;5035613;28;20104;-71
2023/06/23 19:36:58;;;;;;;5.97;3.38;;;24.40;78.10;;;;;;5053261;28;20035;-72
2023/06/23 19:39:24;;;;;;;8.10;3.90;;;24.40;78.50;;;;;;5034625;28;20079;-68
2023/06/23 19:41:49;;;;;;;5.97;4.10;;;24.30;78.80;;;;;;5034660;28;20434;-65
2023/06/23 19:44:15;;;;;;;7.30;3.90;;;24.30;79.30;;;;;;5052732;28;20029;-70
2023/06/23 19:46:41;;;;;;;5.72;3.83;;;24.20;80.00;;;;;;5035208;28;20013;-71
2023/06/23 19:49:07;;;;;;;6.47;3.88;;;24.20;81.20;;;;;;5052693;28;20021;-72
2023/06/23 19:51:34;;;;;;;5.55;3.65;;;24.10;81.70;;;;;;5053167;28;20099;-65
2023/06/23 19:54:00;;;;;;;7.40;4.20;;;24.00;81.90;;;;;;5051945;28;20025;-74
2023/06/23 19:56:26;;;;;;;6.47;4.28;;;24.00;82.70;;;;;;5053107;28;20122;-65
2023/06/23 19:58:51;;;;;;;8.27;4.55;;;23.80;82.70;;;;;;5052599;28;20029;-66
2023/06/23 20:01:18;;;;;;;6.82;4.22;;;23.70;83.40;;;;;;5052893;28;20017;-69
2023/06/23 20:03:45;;;;;;;9.85;5.68;;;23.50;84.80;;;;;;5034807;28;20075;-71
2023/06/23 20:06:11;;;;;;;8.35;5.43;;;23.40;85.40;;;;;;5034401;28;20073;-68
2023/06/23 20:08:36;;;;;;;8.52;5.20;;;23.30;86.40;;;;;;5052938;28;20100;-70
2023/06/23 20:11:02;;;;;;;7.95;4.68;;;23.10;87.80;;;;;;5052305;28;20131;-73
2023/06/23 20:13:28;;;;;;;8.77;4.70;;;23.10;88.50;;;;;;5051304;28;20017;-72
2023/06/23 20:15:53;;;;;;;7.10;5.00;;;23.00;88.30;;;;;;5060559;28;20384;-68
2023/06/23 20:18:19;;;;;;;9.52;5.93;;;22.80;89.30;;;;;;5072749;28;20147;-66
2023/06/23 20:20:45;;;;;;;7.55;5.10;;;22.80;90.30;;;;;;5071977;28;20112;-71
2023/06/23 20:23:11;;;;;;;7.65;5.20;;;22.60;90.30;;;;;;5054479;28;20149;-66
2023/06/23 20:25:36;;;;;;;7.07;4.90;;;22.50;90.70;;;;;;5072277;28;20037;-69
2023/06/23 20:28:02;;;;;;;6.07;4.55;;;22.40;91.30;;;;;;5067480;28;20017;-69
2023/06/23 20:30:28;;;;;;;7.68;5.13;;;22.30;91.60;;;;;;5051814;28;20029;-68
2023/06/23 20:32:54;;;;;;;9.60;6.15;;;22.20;91.80;;;;;;5052106;28;20521;-69
2023/06/23 20:35:19;;;;;;;6.82;5.22;;;22.10;92.30;;;;;;5051074;28;20029;-71
2023/06/23 20:37:45;;;;;;;8.00;5.13;;;22.00;92.80;;;;;;5052359;28;20080;-67
2023/06/23 20:40:11;;;;;;;7.05;4.90;;;22.00;93.30;;;;;;5033654;28;20032;-71
2023/06/23 20:42:37;;;;;;;7.18;5.07;;;22.00;93.50;;;;;;5051794;28;20473;-76
2023/06/23 20:45:03;;;;;;;7.10;4.65;;;21.90;94.00;;;;;;5033553;28;20017;-68
2023/06/23 20:47:29;;;;;;;7.97;5.70;;;21.90;94.40;;;;;;5033893;28;20481;-67
2023/06/23 20:49:55;;;;;;;8.60;5.65;;;21.80;95.00;;;;;;5050917;28;20013;-66
2023/06/23 20:52:21;;;;;;;10.82;6.22;;;21.70;95.40;;;;;;5051618;28;20095;-68
2023/06/23 20:54:46;;;;;;;11.20;6.10;;;21.60;95.70;;;;;;5051438;28;20619;-68
2023/06/23 20:57:12;;;;;;;12.60;6.28;;;21.60;96.20;;;;;;5033032;28;20036;-67
2023/06/23 20:59:38;;;;;;;22.13;6.47;;;21.40;96.90;;;;;;5033960;28;20017;-68
2023/06/23 21:02:04;;;;;;;19.58;6.35;;;21.30;97.80;;;;;;5051421;28;20024;-67
2023/06/23 21:04:29;;;;;;;29.48;7.03;;;21.20;98.50;;;;;;5051020;28;20021;-68
2023/06/23 21:06:55;;;;;;;17.50;6.10;;;21.10;99.50;;;;;;5051059;28;20122;-66
